Weather at Wnp-2 Plant Support Facility Heliport

Public forecast

Using degrees Fahrenheit for public forecast. Weather courtesy of forecast.io.

Closest aviation weather report (METAR) to Wnp-2 Plant Support Facility Heliport

Report is more than 6 hours old.

Closest report is Richland Airport, 9.7 nm (17.9 km) S.

2022/11/14 15:15 (retrieved 2 years ago)

KRLD 141515Z AUTO 00000KT 10SM SCT001 OVC032 M05/M05 A3055 RMK AO2 T10511055

Closest aviation forecast (TAF) to Wnp-2 Plant Support Facility Heliport

Forecast is more than 12 hours old.

Closest forecast is Tri Cities Airport, 15.1 nm (28.0 km) SE.

2023/02/22 20:12 Ammendment (retrieved 1 year ago)

TAF AMD KPSC 222011Z 2220/2318 35017G24KT P6SM OVC020 TEMPO 2220/2222 1/2SM SN FM222300 35018G25KT P6SM OVC030 FM230000 35017G23KT P6SM BKN040 BKN070 FM231200 30022G29KT P6SM OVC050 FM231500 31018G25KT P6SM OVC050 FM231700 34016G22KT P6SM OVC050